Portachuelo, Bolivia
Current Conditions -  °F | °C
As of 5:00 AM on Saturday 29 Nov 2014 (Local Time) from SLVR Reporting Station
Scattered Clouds Scattered Clouds  
Wind Chill: 73°   Ceiling: Unl
Heat Index: 73°   Visibility: 6mi
Dew Point: 72°   Wind: 8mph
Humidity: 94%   Direction: 350°N
Pressure: 29.8"   Gusts: NA
Location:  17.36°S, 63.4°W
Report Text: SLVR 290900Z 35007KT 9999 SCT017 23/22 Q1009
Loading
Personal Weather Stations






























Interactive Weather Map New forecast layout! Learn more

10-Day Weather Forecast

Advertisements
Track Severe Weather on mobile